Time;durP1;ratioP1;P1;durP2;ratioP2;P2;SDS_P1;SDS_P2;PMS_P1;PMS_P2;Temp;Humidity;BMP_temperature;BMP_pressure;BME280_temperature;BME280_humidity;BME280_pressure;Samples;Min_cycle;Max_cycle;Signal;HPM_P1;HPM_P2
2021/05/21 00:00:30;;;;;;;8.63;8.05;;;11.40;99.90;;;;;;5021308;28;20519;-71
2021/05/21 00:03:01;;;;;;;8.32;7.82;;;11.40;99.90;;;;;;5039037;28;20073;-71
2021/05/21 00:05:28;;;;;;;8.57;8.18;;;11.50;99.90;;;;;;4989887;28;20053;-71
2021/05/21 00:07:55;;;;;;;8.27;7.78;;;11.50;99.90;;;;;;5007078;28;20067;-72
2021/05/21 00:10:22;;;;;;;9.15;8.32;;;11.50;99.90;;;;;;4989858;28;20048;-71
2021/05/21 00:12:49;;;;;;;9.48;8.50;;;11.50;99.90;;;;;;5014910;28;20052;-71
2021/05/21 00:15:16;;;;;;;8.27;7.60;;;11.50;99.90;;;;;;5017750;28;20220;-71
2021/05/21 00:17:43;;;;;;;8.75;8.18;;;11.60;99.90;;;;;;5023182;28;20057;-72
2021/05/21 00:20:10;;;;;;;9.18;8.40;;;11.60;99.90;;;;;;5004756;28;20059;-72
2021/05/21 00:22:37;;;;;;;8.20;7.80;;;11.50;99.90;;;;;;5004553;28;20057;-71
2021/05/21 00:25:05;;;;;;;8.65;7.97;;;11.60;99.90;;;;;;4988774;28;20508;-72
2021/05/21 00:27:32;;;;;;;8.25;7.85;;;11.60;99.90;;;;;;5004042;28;20099;-72
2021/05/21 00:29:58;;;;;;;8.02;7.63;;;11.60;99.90;;;;;;5022283;28;20052;-72
2021/05/21 00:32:25;;;;;;;8.10;7.60;;;11.60;99.90;;;;;;5022544;28;20511;-70
2021/05/21 00:34:53;;;;;;;8.57;8.15;;;11.70;99.90;;;;;;5019323;28;20562;-73
2021/05/21 00:37:19;;;;;;;8.60;8.00;;;11.70;99.90;;;;;;4973874;28;20437;-71
2021/05/21 00:39:46;;;;;;;8.02;7.63;;;11.70;99.90;;;;;;5033455;28;20450;-70
2021/05/21 00:42:13;;;;;;;7.82;7.43;;;11.70;99.90;;;;;;5002092;28;20055;-70
2021/05/21 00:44:40;;;;;;;7.78;7.35;;;11.80;99.90;;;;;;4979845;28;20049;-69
2021/05/21 00:47:06;;;;;;;8.52;7.70;;;11.80;99.90;;;;;;5009349;28;20414;-69
2021/05/21 00:49:33;;;;;;;7.72;7.32;;;11.80;99.90;;;;;;5005654;28;20133;-70
2021/05/21 00:52:05;;;;;;;8.23;7.72;;;11.90;99.90;;;;;;5026825;28;20140;-70
2021/05/21 00:54:33;;;;;;;8.18;7.70;;;11.90;99.90;;;;;;5016045;28;20053;-71
2021/05/21 00:57:00;;;;;;;8.18;7.60;;;12.00;99.90;;;;;;5022533;28;20205;-69
2021/05/21 00:59:27;;;;;;;8.38;7.78;;;12.00;99.90;;;;;;4987610;28;20447;-70
2021/05/21 01:01:53;;;;;;;8.48;7.80;;;12.00;99.90;;;;;;4979738;28;20156;-71
2021/05/21 01:04:20;;;;;;;8.50;7.90;;;12.00;99.90;;;;;;5021375;28;20120;-70
2021/05/21 01:06:47;;;;;;;8.15;7.60;;;12.00;99.90;;;;;;5004712;28;20091;-71
2021/05/21 01:09:14;;;;;;;8.68;7.78;;;12.00;99.90;;;;;;5023183;28;20146;-71
2021/05/21 01:11:40;;;;;;;7.93;7.43;;;12.00;99.90;;;;;;4985945;28;20055;-68
2021/05/21 01:14:07;;;;;;;8.43;7.93;;;12.00;99.90;;;;;;5023140;28;20140;-70
2021/05/21 01:16:34;;;;;;;8.55;7.93;;;12.00;99.90;;;;;;5021558;28;20064;-71
2021/05/21 01:19:05;;;;;;;8.30;7.88;;;12.00;99.90;;;;;;4988091;28;20452;-70
2021/05/21 01:21:35;;;;;;;8.35;7.85;;;12.00;99.90;;;;;;5021339;28;20057;-73
2021/05/21 01:24:04;;;;;;;8.23;7.68;;;12.00;99.90;;;;;;4985866;28;20064;-72
2021/05/21 01:26:31;;;;;;;8.25;7.85;;;12.00;99.90;;;;;;5005789;28;20056;-71
2021/05/21 01:28:58;;;;;;;7.93;7.53;;;12.00;99.90;;;;;;5034172;28;20418;-72
2021/05/21 01:31:25;;;;;;;7.97;7.55;;;12.00;99.90;;;;;;5024485;28;20057;-71
2021/05/21 01:33:52;;;;;;;7.82;7.43;;;11.90;99.90;;;;;;5005652;28;20073;-71
2021/05/21 01:36:20;;;;;;;7.72;7.22;;;11.90;99.90;;;;;;5002119;28;20053;-72
2021/05/21 01:39:13;;;;;;;7.70;7.30;;;11.90;99.90;;;;;;5001888;28;20049;-72
2021/05/21 01:41:41;;;;;;;7.82;7.32;;;11.90;99.90;;;;;;5000626;28;20132;-71
2021/05/21 01:44:12;;;;;;;8.30;7.90;;;11.90;99.90;;;;;;5007389;28;20124;-70
2021/05/21 01:46:39;;;;;;;8.15;7.50;;;11.90;99.90;;;;;;4971192;28;20137;-70
2021/05/21 01:49:06;;;;;;;8.75;8.25;;;11.90;99.90;;;;;;5041986;28;20377;-70
2021/05/21 01:51:53;;;;;;;8.27;7.78;;;11.80;99.90;;;;;;5040807;28;20511;-72
2021/05/21 01:54:20;;;;;;;8.05;7.53;;;11.80;99.90;;;;;;5042888;28;20045;-71
2021/05/21 01:56:48;;;;;;;8.50;7.80;;;11.70;99.90;;;;;;5021563;28;20048;-72
2021/05/21 01:59:15;;;;;;;8.30;7.70;;;11.70;99.90;;;;;;5045164;28;20045;-72
2021/05/21 02:01:42;;;;;;;8.35;7.68;;;11.70;99.90;;;;;;5040205;28;20250;-72
2021/05/21 02:04:08;;;;;;;8.65;8.02;;;11.70;99.90;;;;;;5027921;28;20041;-73
2021/05/21 02:06:37;;;;;;;8.82;8.30;;;11.60;99.90;;;;;;5027452;28;20144;-72
2021/05/21 02:09:08;;;;;;;7.22;6.93;;;11.60;99.90;;;;;;5042777;28;20136;-71
2021/05/21 02:11:35;;;;;;;8.38;7.88;;;11.60;99.90;;;;;;5007331;28;20636;-70
2021/05/21 02:14:04;;;;;;;9.05;8.23;;;11.50;99.90;;;;;;5009102;28;20058;-71
2021/05/21 02:16:31;;;;;;;9.10;8.25;;;11.50;99.90;;;;;;5007205;28;20518;-72
2021/05/21 02:18:58;;;;;;;9.07;8.02;;;11.50;99.90;;;;;;5026593;28;20057;-73
2021/05/21 02:21:31;;;;;;;8.30;7.70;;;11.40;99.90;;;;;;5026920;28;20045;-71
2021/05/21 02:24:00;;;;;;;7.83;7.43;;;11.40;99.90;;;;;;4994471;28;20056;-71
2021/05/21 02:26:28;;;;;;;8.13;7.55;;;11.40;99.90;;;;;;5010954;28;20077;-71
2021/05/21 02:28:54;;;;;;;7.45;7.05;;;11.30;99.90;;;;;;5022358;28;20099;-72
2021/05/21 02:31:21;;;;;;;8.00;7.43;;;11.30;99.90;;;;;;5030020;28;20048;-71
2021/05/21 02:33:48;;;;;;;8.02;7.63;;;11.20;99.90;;;;;;5042180;28;20089;-72
2021/05/21 02:36:15;;;;;;;9.02;8.20;;;11.20;99.90;;;;;;5011222;28;20450;-72
2021/05/21 02:38:42;;;;;;;8.10;7.70;;;11.10;99.90;;;;;;5035510;28;20076;-71
2021/05/21 02:41:09;;;;;;;7.95;7.50;;;11.10;99.90;;;;;;5027091;28;20399;-72
2021/05/21 02:43:35;;;;;;;7.65;7.28;;;11.10;99.90;;;;;;5026862;28;20264;-70
2021/05/21 02:46:02;;;;;;;7.45;7.05;;;11.10;99.90;;;;;;5025686;28;20148;-71
2021/05/21 02:48:29;;;;;;;8.20;7.70;;;11.10;99.90;;;;;;5026971;28;20067;-73
2021/05/21 02:50:56;;;;;;;7.68;7.18;;;11.00;99.90;;;;;;5010328;28;20071;-72
2021/05/21 02:53:23;;;;;;;7.32;6.93;;;11.10;99.90;;;;;;5026804;28;20052;-69
2021/05/21 02:55:49;;;;;;;9.30;8.50;;;11.00;99.90;;;;;;5010451;28;20548;-70
2021/05/21 02:58:16;;;;;;;8.68;7.85;;;11.00;99.90;;;;;;5013217;28;20041;-69
2021/05/21 03:00:43;;;;;;;8.25;7.65;;;10.90;99.90;;;;;;5045634;28;20264;-71
2021/05/21 03:03:10;;;;;;;7.78;7.20;;;10.90;99.90;;;;;;5031166;28;20051;-71
2021/05/21 03:05:36;;;;;;;7.90;7.40;;;10.90;99.90;;;;;;5046644;28;20057;-70
2021/05/21 03:08:03;;;;;;;9.45;8.65;;;10.90;99.90;;;;;;5043288;28;20053;-72
2021/05/21 03:10:30;;;;;;;8.55;8.05;;;10.90;99.90;;;;;;5027170;28;20055;-70
2021/05/21 03:12:57;;;;;;;8.98;7.45;;;10.90;99.90;;;;;;5009904;28;20073;-72
2021/05/21 03:15:26;;;;;;;8.60;8.10;;;10.90;99.90;;;;;;5023006;28;20444;-72
2021/05/21 03:17:53;;;;;;;8.52;7.90;;;10.80;99.90;;;;;;5023492;28;20076;-71
2021/05/21 03:20:20;;;;;;;8.13;7.60;;;10.80;99.90;;;;;;4989329;28;20333;-72
2021/05/21 03:22:47;;;;;;;8.07;7.57;;;10.90;99.90;;;;;;5012201;28;20433;-72
2021/05/21 03:25:14;;;;;;;8.98;8.40;;;10.90;99.90;;;;;;5005412;28;20042;-71
2021/05/21 03:27:41;;;;;;;7.63;7.13;;;10.90;99.90;;;;;;5007341;28;20516;-70
2021/05/21 03:30:10;;;;;;;8.10;7.45;;;10.90;99.90;;;;;;5003707;28;20057;-71
2021/05/21 03:32:38;;;;;;;8.43;7.65;;;10.90;99.90;;;;;;5004220;28;20418;-70
2021/05/21 03:35:06;;;;;;;7.82;7.32;;;10.80;99.90;;;;;;5019985;28;20148;-72
2021/05/21 03:37:33;;;;;;;7.43;6.85;;;10.80;99.90;;;;;;5006509;28;20068;-71
2021/05/21 03:39:59;;;;;;;7.82;7.32;;;10.80;99.90;;;;;;5004448;28;20138;-70
2021/05/21 03:42:27;;;;;;;7.80;7.28;;;10.70;99.90;;;;;;5022015;28;20049;-72
2021/05/21 03:44:54;;;;;;;7.45;6.95;;;10.70;99.90;;;;;;5023324;28;20060;-72
2021/05/21 03:47:23;;;;;;;15.27;7.68;;;10.70;99.90;;;;;;5014571;28;20060;-72
2021/05/21 03:49:50;;;;;;;7.28;6.85;;;10.70;99.90;;;;;;5021433;28;20075;-70
2021/05/21 03:52:17;;;;;;;7.85;7.25;;;10.60;99.90;;;;;;5022307;28;20496;-72
2021/05/21 03:54:44;;;;;;;7.95;7.35;;;10.60;99.90;;;;;;5007198;28;20513;-70
2021/05/21 03:57:11;;;;;;;6.97;6.55;;;10.60;99.90;;;;;;5005511;28;20045;-71
2021/05/21 03:59:37;;;;;;;7.38;6.88;;;10.60;99.90;;;;;;4989751;28;20052;-71
2021/05/21 04:02:04;;;;;;;8.10;7.45;;;10.50;99.90;;;;;;5004371;28;20069;-70
2021/05/21 04:04:31;;;;;;;8.77;8.27;;;10.50;99.90;;;;;;5021629;28;20537;-71
2021/05/21 04:06:58;;;;;;;8.20;7.60;;;10.40;99.90;;;;;;5005988;28;20174;-72
2021/05/21 04:09:25;;;;;;;8.05;7.65;;;10.40;99.90;;;;;;5006687;28;20045;-71
2021/05/21 04:11:52;;;;;;;8.02;7.63;;;10.40;99.90;;;;;;5006308;28;20107;-72
2021/05/21 04:14:18;;;;;;;7.82;7.32;;;10.50;99.90;;;;;;4989576;28;20237;-71
2021/05/21 04:16:45;;;;;;;7.60;7.07;;;10.50;99.90;;;;;;5014414;28;20056;-71
2021/05/21 04:19:12;;;;;;;8.32;7.72;;;10.50;99.90;;;;;;5005233;28;20132;-70
2021/05/21 04:21:40;;;;;;;8.02;7.63;;;10.50;99.90;;;;;;5021517;28;20069;-71
2021/05/21 04:24:07;;;;;;;8.40;7.55;;;10.60;99.90;;;;;;5009981;28;20591;-71
2021/05/21 04:26:34;;;;;;;8.02;7.53;;;10.60;99.90;;;;;;5024938;28;20083;-70
2021/05/21 04:29:01;;;;;;;7.70;7.30;;;10.60;99.90;;;;;;5042511;28;20140;-69
2021/05/21 04:31:28;;;;;;;13.02;10.35;;;10.60;99.90;;;;;;5025114;28;20053;-71
2021/05/21 04:33:55;;;;;;;8.55;7.70;;;10.60;99.90;;;;;;4988582;28;20049;-70
2021/05/21 04:36:22;;;;;;;7.35;6.95;;;10.70;99.90;;;;;;5021012;28;20387;-72
2021/05/21 04:38:49;;;;;;;7.50;7.10;;;10.70;99.90;;;;;;5023476;28;20156;-72
2021/05/21 04:41:17;;;;;;;7.80;7.40;;;10.80;99.90;;;;;;5023070;28;20051;-72
2021/05/21 04:43:45;;;;;;;8.20;7.55;;;10.90;99.90;;;;;;5004059;28;20088;-70
2021/05/21 04:46:13;;;;;;;7.43;7.03;;;11.00;99.90;;;;;;4986120;28;20494;-71
2021/05/21 04:48:39;;;;;;;8.30;7.60;;;11.10;99.90;;;;;;5005320;28;20406;-71
2021/05/21 04:51:07;;;;;;;8.55;7.85;;;11.30;99.90;;;;;;5003261;28;20678;-72
2021/05/21 04:53:34;;;;;;;8.30;7.80;;;11.40;99.90;;;;;;5001476;28;20056;-70
2021/05/21 04:56:01;;;;;;;8.82;8.10;;;11.60;99.90;;;;;;5003469;28;20323;-71
2021/05/21 04:58:28;;;;;;;8.75;8.07;;;11.80;99.90;;;;;;4999879;28;20069;-69
2021/05/21 05:00:55;;;;;;;9.35;8.70;;;11.90;99.90;;;;;;5005314;28;20333;-71
2021/05/21 05:03:22;;;;;;;9.63;9.07;;;12.00;99.90;;;;;;5001283;28;20065;-70
2021/05/21 05:05:49;;;;;;;9.27;8.77;;;12.10;99.90;;;;;;4997718;28;20441;-71
2021/05/21 05:08:16;;;;;;;10.05;9.25;;;12.20;99.90;;;;;;5003564;28;20050;-72
2021/05/21 05:10:44;;;;;;;10.00;9.40;;;12.30;99.90;;;;;;4999223;28;20059;-70
2021/05/21 05:13:11;;;;;;;10.07;9.48;;;12.50;99.90;;;;;;4993193;28;20057;-71
2021/05/21 05:15:38;;;;;;;9.75;9.20;;;12.70;99.90;;;;;;4997186;28;20053;-71
2021/05/21 05:18:06;;;;;;;9.85;9.35;;;12.70;99.90;;;;;;4983120;28;20235;-72
2021/05/21 05:20:33;;;;;;;10.18;9.65;;;12.80;99.90;;;;;;4996873;28;20133;-71
2021/05/21 05:23:01;;;;;;;10.60;10.00;;;12.80;99.90;;;;;;4989873;28;20121;-69
2021/05/21 05:25:29;;;;;;;11.32;10.48;;;12.90;99.90;;;;;;4984676;28;20180;-71
2021/05/21 05:27:56;;;;;;;10.52;9.95;;;12.90;99.90;;;;;;4975845;28;20422;-71
2021/05/21 05:30:24;;;;;;;10.60;9.90;;;12.90;99.90;;;;;;5018584;28;20502;-71
2021/05/21 05:32:51;;;;;;;10.88;10.38;;;12.80;99.90;;;;;;5020250;28;20417;-71
2021/05/21 05:35:18;;;;;;;10.93;10.32;;;13.00;99.90;;;;;;5003976;28;20128;-71
2021/05/21 05:37:45;;;;;;;10.07;9.57;;;13.10;99.90;;;;;;4985654;28;20042;-70
2021/05/21 05:40:12;;;;;;;11.10;10.15;;;13.20;99.90;;;;;;5003346;28;20030;-69
2021/05/21 05:42:40;;;;;;;10.70;9.90;;;13.40;99.90;;;;;;4951970;28;20056;-70
2021/05/21 05:45:16;;;;;;;11.05;10.23;;;13.40;99.90;;;;;;4986670;28;20049;-70
2021/05/21 05:47:57;;;;;;;10.70;10.10;;;13.20;99.90;;;;;;4996124;28;20046;-70
2021/05/21 05:50:24;;;;;;;11.15;10.48;;;13.20;99.90;;;;;;4999955;28;20133;-70
2021/05/21 05:52:51;;;;;;;11.23;10.52;;;13.30;99.90;;;;;;5003130;28;20327;-71
2021/05/21 05:55:18;;;;;;;11.32;10.73;;;13.30;99.90;;;;;;5003421;28;20573;-71
2021/05/21 05:57:44;;;;;;;10.82;10.32;;;13.20;99.90;;;;;;5029488;28;20056;-70
2021/05/21 06:00:12;;;;;;;11.45;10.82;;;13.30;99.90;;;;;;5033517;28;20052;-71
2021/05/21 06:02:38;;;;;;;11.43;10.73;;;13.40;99.90;;;;;;5036224;28;20128;-72
2021/05/21 06:05:06;;;;;;;11.68;10.82;;;13.60;99.90;;;;;;5021051;28;20469;-72
2021/05/21 06:07:33;;;;;;;11.52;10.68;;;13.60;99.90;;;;;;5022269;28;20049;-71
2021/05/21 06:09:59;;;;;;;11.63;10.82;;;13.70;99.90;;;;;;5029116;28;20057;-70
2021/05/21 06:12:26;;;;;;;12.02;11.50;;;13.80;99.90;;;;;;5020335;28;20205;-71
2021/05/21 06:14:54;;;;;;;11.35;10.75;;;13.90;99.90;;;;;;5020724;28;20068;-71
2021/05/21 06:17:21;;;;;;;11.43;10.70;;;14.00;99.90;;;;;;4991723;28;20528;-72
2021/05/21 06:19:48;;;;;;;11.65;11.05;;;14.10;99.90;;;;;;4985920;28;20683;-73
2021/05/21 06:22:14;;;;;;;11.70;11.10;;;14.30;99.90;;;;;;4980279;28;20041;-72
2021/05/21 06:24:46;;;;;;;11.77;11.18;;;14.50;99.90;;;;;;4987266;28;20508;-72
2021/05/21 06:27:15;;;;;;;11.20;10.50;;;14.70;99.90;;;;;;4986822;28;20051;-70
2021/05/21 06:29:43;;;;;;;12.32;11.40;;;15.00;99.90;;;;;;5020532;28;20053;-71
2021/05/21 06:32:09;;;;;;;12.32;11.30;;;15.00;99.90;;;;;;5014211;28;20074;-70
2021/05/21 06:34:36;;;;;;;11.35;10.80;;;15.00;99.90;;;;;;4997486;28;20476;-72
2021/05/21 06:37:03;;;;;;;11.98;11.10;;;14.90;99.90;;;;;;4987755;28;20136;-72
2021/05/21 06:39:30;;;;;;;11.02;10.52;;;14.80;99.90;;;;;;5013882;28;20157;-73
2021/05/21 06:41:57;;;;;;;10.60;9.85;;;14.70;99.90;;;;;;5001290;28;20485;-71
2021/05/21 06:44:24;;;;;;;10.75;10.00;;;14.30;99.90;;;;;;5023629;28;20057;-70
2021/05/21 06:46:51;;;;;;;10.88;10.25;;;14.10;99.90;;;;;;5007872;28;20050;-72
2021/05/21 06:49:17;;;;;;;11.52;10.73;;;13.90;99.90;;;;;;5003732;28;20144;-68
2021/05/21 06:51:44;;;;;;;11.38;10.57;;;13.80;99.90;;;;;;5004531;28;20529;-71
2021/05/21 06:54:13;;;;;;;12.15;11.52;;;13.80;99.90;;;;;;5020727;28;20049;-71
2021/05/21 06:56:40;;;;;;;11.80;11.00;;;14.00;99.90;;;;;;5022154;28;20108;-70
2021/05/21 06:59:07;;;;;;;11.48;10.68;;;14.50;99.90;;;;;;5005086;28;20052;-71
2021/05/21 07:01:34;;;;;;;11.77;10.93;;;14.50;99.90;;;;;;4987648;28;20282;-70
2021/05/21 07:04:01;;;;;;;11.73;11.02;;;14.40;99.90;;;;;;4999294;28;20061;-73
2021/05/21 07:06:27;;;;;;;11.38;10.70;;;14.50;99.90;;;;;;5006090;28;20041;-72
2021/05/21 07:08:54;;;;;;;11.73;11.05;;;14.70;99.90;;;;;;5022153;28;20065;-71
2021/05/21 07:11:21;;;;;;;11.43;10.82;;;14.80;99.90;;;;;;5020380;28;20369;-71
2021/05/21 07:13:48;;;;;;;12.80;11.77;;;15.20;99.90;;;;;;5037737;28;20060;-70
2021/05/21 07:16:14;;;;;;;10.98;10.48;;;15.40;99.90;;;;;;5001529;28;20050;-71
2021/05/21 07:18:41;;;;;;;11.32;10.20;;;15.60;99.90;;;;;;5010036;28;20364;-71
2021/05/21 07:21:08;;;;;;;10.82;10.10;;;15.60;99.90;;;;;;5011643;28;20052;-71
2021/05/21 07:23:35;;;;;;;10.70;9.85;;;15.30;99.90;;;;;;4987738;28;20209;-72
2021/05/21 07:26:02;;;;;;;10.95;10.13;;;15.20;99.90;;;;;;4987869;28;20494;-71
2021/05/21 07:28:29;;;;;;;10.20;9.52;;;15.10;99.90;;;;;;5015869;28;20045;-70
2021/05/21 07:30:56;;;;;;;11.27;10.30;;;15.00;99.90;;;;;;5026360;28;20049;-71
2021/05/21 07:33:23;;;;;;;10.93;10.23;;;14.70;99.90;;;;;;5019697;28;20049;-70
2021/05/21 07:35:50;;;;;;;12.65;11.60;;;14.60;99.90;;;;;;5004315;28;20076;-69
2021/05/21 07:38:17;;;;;;;11.05;10.55;;;14.60;99.90;;;;;;5026643;28;20053;-69
2021/05/21 07:40:44;;;;;;;10.82;9.95;;;14.80;99.90;;;;;;5022424;28;20172;-70
2021/05/21 07:43:11;;;;;;;11.10;10.18;;;15.00;99.90;;;;;;5007436;28;20052;-70
2021/05/21 07:45:38;;;;;;;11.35;10.75;;;14.90;99.90;;;;;;5011590;28;20037;-69
2021/05/21 07:48:05;;;;;;;10.57;9.77;;;14.70;99.90;;;;;;4986978;28;20144;-71
2021/05/21 07:50:37;;;;;;;11.30;10.40;;;14.50;99.90;;;;;;5024516;28;20462;-71
2021/05/21 07:53:06;;;;;;;12.65;11.70;;;14.30;99.90;;;;;;4990133;28;20060;-71
2021/05/21 07:55:33;;;;;;;11.07;10.43;;;14.40;99.90;;;;;;5004133;28;20465;-71
2021/05/21 07:58:00;;;;;;;11.02;10.27;;;14.80;99.90;;;;;;5006085;28;20049;-71
2021/05/21 08:00:26;;;;;;;10.30;9.88;;;14.80;99.90;;;;;;5012324;28;20042;-70
2021/05/21 08:02:53;;;;;;;10.30;9.63;;;14.70;99.90;;;;;;4989808;28;20168;-70
2021/05/21 08:05:21;;;;;;;11.55;10.77;;;14.60;99.90;;;;;;5009991;28;20132;-69
2021/05/21 08:07:48;;;;;;;12.02;11.40;;;14.80;99.90;;;;;;4971820;28;20051;-69
2021/05/21 08:10:15;;;;;;;12.10;11.38;;;15.20;99.90;;;;;;4997966;28;20054;-71
2021/05/21 08:12:42;;;;;;;13.20;12.10;;;15.80;99.90;;;;;;4999766;28;20054;-69
2021/05/21 08:15:10;;;;;;;12.90;11.95;;;16.10;99.90;;;;;;4999491;28;20505;-70
2021/05/21 08:17:37;;;;;;;12.55;11.68;;;16.40;99.90;;;;;;4981908;28;20052;-70
2021/05/21 08:20:12;;;;;;;13.75;12.32;;;16.70;99.90;;;;;;4949627;28;20535;-70
2021/05/21 08:22:38;;;;;;;13.13;11.93;;;16.70;99.90;;;;;;4983027;28;20060;-69
2021/05/21 08:25:06;;;;;;;13.60;12.40;;;16.70;99.90;;;;;;4966736;28;20500;-70
2021/05/21 08:27:33;;;;;;;13.10;11.88;;;16.70;99.90;;;;;;4950877;28;20082;-70
2021/05/21 08:30:01;;;;;;;11.60;11.00;;;16.60;99.90;;;;;;4995478;28;20104;-71
2021/05/21 08:32:28;;;;;;;11.80;11.10;;;16.80;99.90;;;;;;5000328;28;20181;-70
2021/05/21 08:34:55;;;;;;;11.68;11.00;;;16.70;99.90;;;;;;4993502;28;20050;-70
2021/05/21 08:37:22;;;;;;;11.68;11.18;;;16.50;99.90;;;;;;4974390;28;20077;-69
2021/05/21 08:39:49;;;;;;;11.60;10.90;;;16.70;99.90;;;;;;4988825;28;20096;-69
2021/05/21 08:42:17;;;;;;;11.48;10.90;;;16.90;99.90;;;;;;4987677;28;20145;-70
2021/05/21 08:44:46;;;;;;;12.27;11.45;;;17.00;99.90;;;;;;4997333;28;20233;-70
2021/05/21 08:47:14;;;;;;;12.35;11.55;;;17.30;99.90;;;;;;4980399;28;20469;-71
2021/05/21 08:49:41;;;;;;;12.88;12.23;;;17.20;99.90;;;;;;4986990;28;20133;-71
2021/05/21 08:52:08;;;;;;;11.02;10.32;;;17.00;99.90;;;;;;4983081;28;20065;-72
2021/05/21 08:54:36;;;;;;;12.18;11.57;;;17.20;99.90;;;;;;4984670;28;20050;-71
2021/05/21 08:57:05;;;;;;;13.43;12.73;;;17.20;99.90;;;;;;4985144;28;20042;-71
2021/05/21 08:59:32;;;;;;;11.57;10.77;;;17.20;99.90;;;;;;4996427;28;20287;-71
2021/05/21 09:01:59;;;;;;;11.98;11.32;;;17.10;99.90;;;;;;4974256;28;20452;-72
2021/05/21 09:04:53;;;;;;;11.93;11.20;;;17.30;99.90;;;;;;4949974;28;20459;-72
2021/05/21 09:07:24;;;;;;;12.70;11.70;;;16.90;99.90;;;;;;4965672;28;20038;-72
2021/05/21 09:09:52;;;;;;;13.25;12.45;;;17.00;99.90;;;;;;4983299;28;20525;-72
2021/05/21 09:12:20;;;;;;;12.60;11.60;;;16.90;99.90;;;;;;5003930;28;20140;-71
2021/05/21 09:15:13;;;;;;;12.00;11.20;;;16.70;99.90;;;;;;4985774;28;20057;-72
2021/05/21 09:17:53;;;;;;;10.90;10.00;;;16.30;99.90;;;;;;4999226;28;20136;-71
2021/05/21 09:20:24;;;;;;;11.27;10.43;;;16.30;99.90;;;;;;5001553;28;20069;-71
2021/05/21 09:23:05;;;;;;;11.70;10.77;;;16.20;99.90;;;;;;5000946;28;20464;-71
2021/05/21 09:25:45;;;;;;;11.93;11.23;;;15.70;99.90;;;;;;4981752;28;20137;-72
2021/05/21 09:28:34;;;;;;;12.95;11.98;;;15.70;99.90;;;;;;4992223;28;20431;-71
2021/05/21 09:31:17;;;;;;;12.13;11.25;;;16.30;99.90;;;;;;4975004;28;20072;-70
2021/05/21 09:33:48;;;;;;;12.23;11.50;;;16.80;99.90;;;;;;4987109;28;20507;-71
2021/05/21 09:36:31;;;;;;;11.50;10.70;;;17.00;99.90;;;;;;4997648;28;20055;-71
2021/05/21 09:38:59;;;;;;;11.57;10.77;;;16.90;99.90;;;;;;5021969;28;20061;-72
2021/05/21 09:41:49;;;;;;;11.13;10.55;;;16.90;99.90;;;;;;5018135;28;20061;-71
2021/05/21 09:44:17;;;;;;;14.10;13.40;;;16.80;99.90;;;;;;4986135;28;20056;-70
2021/05/21 09:46:48;;;;;;;14.35;13.00;;;16.70;99.90;;;;;;4993033;28;20178;-71
2021/05/21 09:49:35;;;;;;;13.10;12.30;;;16.90;99.90;;;;;;4987445;28;20056;-71
2021/05/21 09:52:03;;;;;;;14.90;13.95;;;17.20;99.90;;;;;;4984352;28;20521;-71
2021/05/21 09:54:48;;;;;;;14.20;13.20;;;17.40;99.90;;;;;;4969426;28;20062;-72
2021/05/21 09:57:16;;;;;;;14.35;13.45;;;17.20;99.90;;;;;;5001516;28;20049;-72
2021/05/21 09:59:45;;;;;;;11.63;10.73;;;17.00;99.90;;;;;;5000329;28;20384;-71
2021/05/21 10:02:30;;;;;;;11.52;10.70;;;17.30;99.90;;;;;;4965714;28;20046;-70
2021/05/21 10:04:59;;;;;;;14.20;13.30;;;17.00;99.90;;;;;;4982074;28;20050;-71
2021/05/21 10:07:26;;;;;;;14.35;13.35;;;16.70;99.90;;;;;;4983599;28;20045;-71
2021/05/21 10:09:54;;;;;;;13.85;12.57;;;16.60;99.90;;;;;;5002042;28;20125;-71
2021/05/21 10:12:21;;;;;;;14.57;13.98;;;17.00;99.90;;;;;;5001294;28;20522;-70
2021/05/21 10:14:48;;;;;;;15.68;14.50;;;16.70;99.90;;;;;;4968867;28;20056;-70
2021/05/21 10:17:23;;;;;;;11.40;10.90;;;16.70;99.90;;;;;;4994095;28;20064;-72
2021/05/21 10:19:54;;;;;;;12.38;11.68;;;16.70;99.90;;;;;;5003296;28;20037;-73
2021/05/21 10:22:38;;;;;;;12.13;10.93;;;16.40;99.90;;;;;;4987673;28;20074;-72
2021/05/21 10:25:15;;;;;;;12.88;11.63;;;16.30;99.90;;;;;;5004786;28;20050;-73
2021/05/21 10:27:45;;;;;;;12.18;11.57;;;16.10;99.90;;;;;;4988482;28;20068;-72
2021/05/21 10:30:14;;;;;;;14.43;13.65;;;16.10;99.90;;;;;;5002658;28;20505;-73
2021/05/21 10:32:41;;;;;;;14.95;13.75;;;16.20;99.90;;;;;;4984477;28;20050;-71
2021/05/21 10:35:20;;;;;;;13.27;12.32;;;16.70;99.90;;;;;;5004966;28;20050;-76
2021/05/21 10:38:25;;;;;;;15.98;14.65;;;16.90;99.90;;;;;;5007365;28;20061;-75
2021/05/21 10:41:15;;;;;;;13.67;12.97;;;16.90;99.90;;;;;;4979620;28;20656;-74
2021/05/21 10:44:18;;;;;;;15.13;13.93;;;17.10;99.90;;;;;;4955276;28;20316;-74
2021/05/21 10:46:48;;;;;;;16.60;15.07;;;16.70;99.90;;;;;;5001979;28;20050;-74
2021/05/21 10:49:22;;;;;;;20.45;18.52;;;16.30;99.90;;;;;;4994131;28;20053;-74
2021/05/21 10:51:54;;;;;;;13.27;12.13;;;16.40;99.90;;;;;;5021196;28;20133;-74
2021/05/21 10:54:24;;;;;;;12.63;11.80;;;16.50;99.90;;;;;;4995835;28;20061;-74
2021/05/21 10:56:55;;;;;;;14.43;13.30;;;16.40;99.90;;;;;;4968291;28;20077;-74
2021/05/21 10:59:43;;;;;;;14.27;13.43;;;16.40;99.90;;;;;;4991393;28;20053;-74
2021/05/21 11:02:13;;;;;;;12.13;11.10;;;16.60;99.90;;;;;;4968473;28;20137;-74
2021/05/21 11:04:39;;;;;;;15.70;13.82;;;16.80;99.90;;;;;;4985320;28;20507;-75
2021/05/21 11:07:06;;;;;;;13.90;13.07;;;16.70;99.90;;;;;;4953682;28;20056;-74
2021/05/21 11:09:43;;;;;;;12.73;11.73;;;16.60;99.90;;;;;;4990673;28;20312;-74
2021/05/21 11:12:15;;;;;;;12.00;11.27;;;16.30;99.90;;;;;;4989901;28;20060;-74
2021/05/21 11:14:45;;;;;;;12.68;11.88;;;15.80;99.90;;;;;;4985195;28;20112;-75
2021/05/21 11:17:29;;;;;;;13.45;12.60;;;15.70;99.90;;;;;;4977764;28;20229;-74
2021/05/21 11:20:01;;;;;;;13.48;11.95;;;15.70;99.90;;;;;;4987314;28;20077;-74
2021/05/21 11:22:29;;;;;;;13.57;11.25;;;15.80;99.90;;;;;;5003944;28;20465;-74
2021/05/21 11:25:03;;;;;;;14.27;11.63;;;15.70;99.90;;;;;;4987556;28;20046;-75
2021/05/21 11:27:35;;;;;;;13.27;11.95;;;15.60;99.90;;;;;;4988592;28;20246;-75
2021/05/21 11:30:06;;;;;;;16.60;12.13;;;15.40;99.90;;;;;;4986222;28;20061;-72
2021/05/21 11:32:34;;;;;;;15.95;14.75;;;15.20;99.90;;;;;;5004431;28;20076;-70
2021/05/21 11:35:01;;;;;;;14.27;13.00;;;15.40;99.90;;;;;;4971717;28;20304;-72
2021/05/21 11:37:29;;;;;;;13.57;12.77;;;15.90;99.90;;;;;;5002038;28;20469;-72
2021/05/21 11:40:03;;;;;;;15.10;12.65;;;16.60;99.90;;;;;;5011630;28;20530;-71
2021/05/21 11:42:30;;;;;;;15.05;14.05;;;17.20;99.90;;;;;;4987178;28;20153;-71
2021/05/21 11:44:58;;;;;;;17.77;16.25;;;17.00;99.90;;;;;;5003025;28;20450;-72
2021/05/21 11:47:31;;;;;;;13.35;12.45;;;17.20;99.90;;;;;;4986147;28;20392;-71
2021/05/21 11:50:00;;;;;;;13.35;12.13;;;17.50;99.90;;;;;;5002760;28;20580;-71
2021/05/21 11:52:27;;;;;;;13.32;12.18;;;17.20;99.90;;;;;;4977919;28;20133;-71
2021/05/21 11:54:58;;;;;;;13.25;12.23;;;16.80;99.90;;;;;;4985634;28;20068;-70
2021/05/21 11:57:25;;;;;;;14.10;12.77;;;16.50;99.90;;;;;;5009088;28;20049;-70
2021/05/21 11:59:56;;;;;;;15.48;12.45;;;16.30;99.90;;;;;;5012393;28;20447;-70
2021/05/21 12:02:24;;;;;;;13.27;12.25;;;16.40;99.90;;;;;;4984254;28;20046;-70
2021/05/21 12:04:51;;;;;;;17.88;16.23;;;16.30;99.90;;;;;;5004511;28;20129;-71
2021/05/21 12:07:21;;;;;;;14.00;12.55;;;16.30;99.90;;;;;;4986514;28;20049;-70
2021/05/21 12:10:04;;;;;;;15.05;13.80;;;16.90;99.90;;;;;;4986852;28;20414;-70
2021/05/21 12:12:35;;;;;;;15.57;12.05;;;17.30;99.90;;;;;;5018013;28;20060;-70
2021/05/21 12:15:06;;;;;;;15.60;14.13;;;17.60;99.90;;;;;;5002843;28;20285;-70
2021/05/21 12:17:35;;;;;;;14.75;13.50;;;17.60;99.90;;;;;;4961472;28;20441;-70
2021/05/21 12:20:05;;;;;;;13.38;12.15;;;17.70;99.90;;;;;;4967691;28;20046;-72
2021/05/21 12:22:32;;;;;;;14.20;12.48;;;17.80;99.90;;;;;;5014712;28;20352;-71
2021/05/21 12:25:01;;;;;;;13.32;12.07;;;17.60;99.90;;;;;;5013954;28;20049;-70
2021/05/21 12:27:28;;;;;;;15.63;11.35;;;17.40;99.90;;;;;;5005328;28;20049;-70
2021/05/21 12:29:56;;;;;;;12.25;11.20;;;17.00;99.90;;;;;;5041733;28;20053;-71
2021/05/21 12:32:23;;;;;;;12.95;11.77;;;16.90;99.90;;;;;;5032114;28;20079;-71
2021/05/21 12:34:53;;;;;;;15.88;13.93;;;16.50;99.90;;;;;;4992523;28;20127;-71
2021/05/21 12:37:24;;;;;;;12.65;11.45;;;16.80;99.90;;;;;;5003726;28;20468;-71
2021/05/21 12:39:51;;;;;;;12.75;11.30;;;17.20;99.90;;;;;;5038525;28;20045;-70
2021/05/21 12:42:21;;;;;;;15.20;14.05;;;17.30;99.90;;;;;;5006637;28;20041;-70
2021/05/21 12:44:53;;;;;;;15.27;14.10;;;17.00;99.90;;;;;;4994277;28;20486;-71